createdAt,value
2019-04-27T00:00:14.657Z,30.25
2019-04-27T00:02:55.823Z,28.30
2019-04-27T00:05:41.290Z,30.05
2019-04-27T00:08:35.076Z,28.27
2019-04-27T00:11:11.649Z,30.10
2019-04-27T00:13:43.742Z,30.40
2019-04-27T00:16:31.343Z,29.07
2019-04-27T00:19:18.460Z,29.52
2019-04-27T00:21:50.406Z,30.97
2019-04-27T00:24:21.156Z,29.92
2019-04-27T00:26:51.685Z,30.95
2019-04-27T00:29:21.803Z,29.98
2019-04-27T00:31:53.416Z,30.97
2019-04-27T00:34:24.383Z,29.35
2019-04-27T00:36:59.330Z,30.00
2019-04-27T00:39:46.857Z,30.27
2019-04-27T00:42:17.481Z,28.60
2019-04-27T00:44:47.710Z,30.20
2019-04-27T00:47:18.239Z,32.60
2019-04-27T00:49:48.767Z,32.48
2019-04-27T00:52:19.091Z,31.15
2019-04-27T00:54:49.415Z,30.92
2019-04-27T00:57:22.865Z,30.72
2019-04-27T01:00:11.363Z,31.93
2019-04-27T01:02:46.192Z,31.87
2019-04-27T01:05:18.155Z,31.02
2019-04-27T01:07:48.479Z,32.48
2019-04-27T01:10:19.417Z,32.08
2019-04-27T01:12:50.151Z,31.55
2019-04-27T01:15:20.680Z,32.48
2019-04-27T01:17:51.208Z,31.02
2019-04-27T01:20:21.928Z,31.75
2019-04-27T01:22:52.065Z,33.00
2019-04-27T01:25:24.227Z,31.30
2019-04-27T01:27:59.644Z,33.10
2019-04-27T01:30:32.657Z,33.02
2019-04-27T01:33:03.186Z,32.58
2019-04-27T01:35:33.511Z,34.27
2019-04-27T01:38:15.980Z,32.75
2019-04-27T01:40:46.246Z,34.30
2019-04-27T01:43:16.585Z,34.05
2019-04-27T01:45:48.737Z,33.38
2019-04-27T01:48:25.883Z,34.67
2019-04-27T01:50:55.524Z,33.67
2019-04-27T01:53:26.462Z,33.90
2019-04-27T01:55:59.055Z,33.18
2019-04-27T01:58:29.304Z,32.83
2019-04-27T02:01:09.532Z,33.58
2019-04-27T02:03:59.048Z,32.40
2019-04-27T02:06:30.363Z,33.40
2019-04-27T02:09:00.765Z,33.55
2019-04-27T02:11:31.091Z,32.17
2019-04-27T02:14:01.414Z,32.13
2019-04-27T02:16:31.739Z,32.67
2019-04-27T02:19:02.061Z,33.13
2019-04-27T02:21:32.386Z,32.98
2019-04-27T02:24:03.214Z,35.45
2019-04-27T02:26:33.441Z,34.98
2019-04-27T02:29:14.622Z,33.67
2019-04-27T02:31:50.035Z,34.08
2019-04-27T02:34:22.236Z,34.98
2019-04-27T02:36:52.560Z,34.35
2019-04-27T02:39:22.878Z,35.40
2019-04-27T02:41:53.202Z,33.90
2019-04-27T02:44:24.960Z,34.18
2019-04-27T02:46:55.285Z,33.50
2019-04-27T02:49:25.825Z,32.83
2019-04-27T02:52:00.852Z,33.55
2019-04-27T02:54:31.783Z,32.53
2019-04-27T02:57:02.312Z,32.45
2019-04-27T02:59:32.830Z,31.75
2019-04-27T03:02:20.781Z,32.55
2019-04-27T03:04:51.511Z,33.40
2019-04-27T03:07:22.039Z,32.33
2019-04-27T03:09:52.776Z,32.05
2019-04-27T03:12:24.734Z,33.58
2019-04-27T03:15:10.323Z,33.08
2019-04-27T03:17:42.384Z,33.28
2019-04-27T03:20:30.537Z,32.35
2019-04-27T03:23:02.485Z,33.63
2019-04-27T03:25:37.108Z,34.20
2019-04-27T03:28:10.713Z,33.80
2019-04-27T03:30:43.006Z,35.20
2019-04-27T03:33:13.203Z,34.78
2019-04-27T03:35:44.358Z,37.73
2019-04-27T03:38:14.871Z,36.48
2019-04-27T03:40:45.199Z,37.50
2019-04-27T03:43:20.256Z,37.15
2019-04-27T03:45:52.478Z,36.93
2019-04-27T03:48:22.514Z,38.53
2019-04-27T03:51:10.168Z,36.73
2019-04-27T03:53:49.718Z,36.65
2019-04-27T03:56:21.953Z,35.13
2019-04-27T03:58:53.916Z,36.58
2019-04-27T04:01:24.240Z,39.40
2019-04-27T04:03:54.766Z,37.38
2019-04-27T04:06:25.500Z,35.15
2019-04-27T04:08:56.032Z,35.70
2019-04-27T04:11:30.286Z,34.63
2019-04-27T04:14:06.919Z,34.30
2019-04-27T04:16:41.544Z,30.82
2019-04-27T04:19:12.166Z,33.00
2019-04-27T04:21:42.392Z,30.35
2019-04-27T04:24:12.924Z,28.35
2019-04-27T04:26:43.247Z,28.17
2019-04-27T04:29:13.982Z,26.45
2019-04-27T04:31:44.099Z,29.90
2019-04-27T04:34:14.628Z,27.17
2019-04-27T04:36:44.951Z,28.40
2019-04-27T04:39:15.278Z,26.80
2019-04-27T04:41:47.246Z,26.55
2019-04-27T04:47:26.806Z,29.57
2019-04-27T04:50:08.578Z,27.75
2019-04-27T04:52:29.531Z,27.42
2019-04-27T04:55:02.699Z,27.22
2019-04-27T04:57:31.778Z,26.10
2019-04-27T05:00:02.104Z,25.85
2019-04-27T05:02:32.636Z,25.65
2019-04-27T05:05:02.952Z,25.15
2019-04-27T05:07:33.276Z,24.95
2019-04-27T05:10:04.215Z,23.35
2019-04-27T05:12:34.531Z,20.60
2019-04-27T05:15:05.676Z,21.42
2019-04-27T05:17:35.681Z,20.92
2019-04-27T05:20:10.022Z,21.73
2019-04-27T05:22:39.342Z,20.17
2019-04-27T05:25:09.337Z,20.15
2019-04-27T05:27:40.798Z,20.75
2019-04-27T05:30:10.689Z,21.05
2019-04-27T05:32:40.551Z,19.27
2019-04-27T05:35:10.463Z,18.95
2019-04-27T05:37:40.356Z,20.05
2019-04-27T05:40:10.239Z,21.20
2019-04-27T05:42:40.127Z,18.80
2019-04-27T05:45:26.673Z,21.17
2019-04-27T05:48:01.092Z,18.90
2019-04-27T05:50:37.756Z,20.77
2019-04-27T05:53:02.663Z,19.52
2019-04-27T05:55:32.521Z,20.40
2019-04-27T05:58:02.343Z,23.45
2019-04-27T06:00:32.321Z,24.67
2019-04-27T06:03:02.229Z,22.37
2019-04-27T06:05:32.587Z,22.55
2019-04-27T06:08:02.523Z,21.25
2019-04-27T06:10:32.412Z,22.07
2019-04-27T06:13:02.405Z,22.55
2019-04-27T06:15:32.362Z,22.37
2019-04-27T06:18:02.259Z,23.65
2019-04-27T06:20:32.378Z,24.57
2019-04-27T06:23:02.272Z,23.60
2019-04-27T06:25:32.263Z,24.27
2019-04-27T06:28:02.274Z,22.32
2019-04-27T06:30:32.460Z,22.95
2019-04-27T06:33:02.340Z,29.42
2019-04-27T06:35:32.282Z,28.30
2019-04-27T06:38:02.305Z,32.48
2019-04-27T06:40:32.209Z,27.70
2019-04-27T06:43:02.148Z,28.95
2019-04-27T06:45:32.286Z,28.42
2019-04-27T06:48:02.815Z,28.83
2019-04-27T06:50:32.933Z,27.87
2019-04-27T06:53:03.262Z,27.52
2019-04-27T06:55:33.991Z,25.17
2019-04-27T06:58:04.314Z,28.25
2019-04-27T07:00:34.843Z,26.52
2019-04-27T07:03:05.167Z,29.32
2019-04-27T07:05:35.490Z,28.85
2019-04-27T07:08:05.605Z,29.45
2019-04-27T07:10:35.729Z,35.35
2019-04-27T07:13:06.074Z,30.15
2019-04-27T07:15:36.375Z,29.07
2019-04-27T07:18:07.108Z,26.48
2019-04-27T07:20:38.756Z,24.05
2019-04-27T07:23:09.485Z,23.00
2019-04-27T07:25:40.129Z,24.15
2019-04-27T07:28:10.471Z,29.20
2019-04-27T07:30:40.776Z,34.85
2019-04-27T07:33:11.101Z,29.80
2019-04-27T07:35:41.423Z,28.65
2019-04-27T07:38:12.951Z,27.67
2019-04-27T07:40:43.704Z,30.35
2019-04-27T07:43:15.468Z,30.10
2019-04-27T07:45:45.586Z,30.60
2019-04-27T07:48:15.969Z,28.92
2019-04-27T07:50:46.438Z,19.95
2019-04-27T07:53:16.762Z,29.85
2019-04-27T07:55:47.281Z,31.50
2019-04-27T07:58:17.410Z,35.58
2019-04-27T08:00:49.482Z,34.20
2019-04-27T08:03:19.900Z,29.37
2019-04-27T08:05:50.224Z,26.77
2019-04-27T08:08:20.551Z,24.75
2019-04-27T08:10:51.283Z,25.23
2019-04-27T08:13:21.181Z,23.22
2019-04-27T08:15:51.199Z,24.27
2019-04-27T08:18:22.857Z,24.60
2019-04-27T08:20:56.906Z,24.02
2019-04-27T08:23:25.938Z,23.35
2019-04-27T08:25:58.882Z,19.90
2019-04-27T08:28:30.553Z,22.00
2019-04-27T08:31:02.065Z,22.65
2019-04-27T08:33:31.989Z,16.17
2019-04-27T08:36:01.811Z,13.53
2019-04-27T08:38:33.147Z,14.80
2019-04-27T08:41:03.563Z,13.75
2019-04-27T08:43:35.732Z,13.78
2019-04-27T08:46:05.873Z,13.83
2019-04-27T08:48:37.012Z,13.32
2019-04-27T08:51:09.278Z,13.50
2019-04-27T08:53:39.818Z,13.70
2019-04-27T08:56:09.983Z,14.35
2019-04-27T08:58:39.885Z,14.13
2019-04-27T09:01:10.417Z,13.75
2019-04-27T09:03:40.431Z,13.72
2019-04-27T09:06:11.871Z,13.70
2019-04-27T09:08:46.390Z,13.10
2019-04-27T09:11:18.660Z,13.95
2019-04-27T09:13:54.244Z,13.22
2019-04-27T09:16:28.825Z,14.03
2019-04-27T09:19:00.596Z,14.18
2019-04-27T09:21:32.192Z,14.33
2019-04-27T09:24:02.210Z,14.10
2019-04-27T09:26:32.219Z,14.35
2019-04-27T09:29:02.273Z,14.28
2019-04-27T09:31:32.162Z,14.50
2019-04-27T09:34:02.045Z,15.85
2019-04-27T09:36:31.871Z,14.28
2019-04-27T09:39:01.921Z,15.50
2019-04-27T09:41:31.763Z,14.80
2019-04-27T09:44:02.958Z,14.60
2019-04-27T09:46:33.280Z,15.10
2019-04-27T09:49:03.817Z,15.18
2019-04-27T09:51:36.265Z,16.00
2019-04-27T09:54:06.095Z,15.32
2019-04-27T09:56:36.343Z,16.12
2019-04-27T09:59:06.488Z,16.02
2019-04-27T10:01:36.959Z,14.70
2019-04-27T10:04:07.005Z,14.70
2019-04-27T10:06:36.950Z,15.50
2019-04-27T10:09:08.221Z,15.38
2019-04-27T10:11:38.043Z,14.03
2019-04-27T10:14:07.885Z,14.70
2019-04-27T10:16:37.726Z,13.85
2019-04-27T10:19:07.683Z,15.08
2019-04-27T10:21:39.785Z,15.38
2019-04-27T10:24:09.739Z,15.03
2019-04-27T10:26:39.641Z,16.27
2019-04-27T10:29:10.999Z,16.23
2019-04-27T10:31:40.833Z,15.75
2019-04-27T10:34:10.806Z,17.92
2019-04-27T10:36:40.838Z,18.77
2019-04-27T10:39:13.544Z,16.12
2019-04-27T10:41:43.727Z,16.40
2019-04-27T10:44:13.580Z,19.92
2019-04-27T10:46:43.611Z,24.65
2019-04-27T10:49:13.527Z,25.55
2019-04-27T10:51:43.438Z,24.92
2019-04-27T10:54:13.331Z,27.10
2019-04-27T10:56:43.409Z,27.77
2019-04-27T10:59:13.412Z,26.35
2019-04-27T11:01:43.369Z,25.08
2019-04-27T11:04:17.898Z,25.88
2019-04-27T11:06:52.414Z,27.77
2019-04-27T11:09:22.449Z,26.62
2019-04-27T11:11:52.463Z,27.22
2019-04-27T11:14:22.302Z,29.18
2019-04-27T11:16:52.215Z,25.85
2019-04-27T11:19:22.264Z,26.85
2019-04-27T11:21:52.417Z,25.43
2019-04-27T11:24:22.423Z,25.05
2019-04-27T11:26:52.281Z,23.90
2019-04-27T11:29:22.109Z,24.72
2019-04-27T11:31:52.167Z,25.08
2019-04-27T11:34:23.639Z,25.92
2019-04-27T11:36:57.599Z,23.77
2019-04-27T11:39:27.486Z,25.35
2019-04-27T11:41:57.453Z,25.27
2019-04-27T11:44:27.315Z,24.02
2019-04-27T11:46:57.161Z,22.90
2019-04-27T11:49:27.138Z,25.12
2019-04-27T11:51:57.067Z,22.35
2019-04-27T11:54:27.550Z,29.52
2019-04-27T11:56:57.796Z,22.87
2019-04-27T11:59:27.801Z,21.97
2019-04-27T12:01:57.748Z,22.42
2019-04-27T12:04:27.581Z,21.30
2019-04-27T12:06:57.545Z,21.62
2019-04-27T12:09:27.374Z,22.02
2019-04-27T12:12:12.381Z,22.65
2019-04-27T12:14:28.859Z,22.10
2019-04-27T12:16:58.776Z,22.32
2019-04-27T12:19:28.596Z,22.20
2019-04-27T12:21:58.468Z,20.48
2019-04-27T12:24:28.450Z,21.68
2019-04-27T12:27:00.003Z,21.73
2019-04-27T12:29:34.421Z,20.88
2019-04-27T12:32:05.629Z,22.02
2019-04-27T12:34:36.125Z,22.15
2019-04-27T12:37:07.297Z,22.58
2019-04-27T12:39:37.221Z,23.05
2019-04-27T12:42:07.158Z,22.95
2019-04-27T12:44:42.178Z,23.30
2019-04-27T12:47:08.691Z,22.52
2019-04-27T12:49:38.705Z,23.20
2019-04-27T12:52:08.595Z,22.93
2019-04-27T12:54:40.199Z,22.32
2019-04-27T12:57:12.019Z,21.35
2019-04-27T12:59:49.243Z,22.30
2019-04-27T13:02:21.954Z,22.15
2019-04-27T13:04:51.893Z,22.65
2019-04-27T13:07:21.898Z,19.90
2019-04-27T13:09:52.012Z,17.48
2019-04-27T13:12:22.173Z,19.07
2019-04-27T13:14:52.141Z,18.27
2019-04-27T13:17:23.544Z,19.75
2019-04-27T13:19:56.081Z,21.25
2019-04-27T13:22:26.269Z,19.48
2019-04-27T13:24:56.613Z,19.05
2019-04-27T13:27:27.036Z,21.30
2019-04-27T13:29:57.619Z,23.62
2019-04-27T13:32:29.120Z,20.45
2019-04-27T13:34:59.385Z,19.23
2019-04-27T13:37:33.982Z,22.90
2019-04-27T13:40:09.498Z,21.60
2019-04-27T13:42:38.176Z,19.82
2019-04-27T13:45:26.621Z,21.87
2019-04-27T13:48:14.244Z,19.15
2019-04-27T13:50:45.827Z,19.82
2019-04-27T13:53:16.758Z,19.12
2019-04-27T13:55:48.458Z,19.37
2019-04-27T13:58:18.436Z,25.48
2019-04-27T14:00:48.352Z,26.20
2019-04-27T14:03:20.868Z,24.12
2019-04-27T14:05:50.042Z,18.25
2019-04-27T14:08:19.949Z,19.02
2019-04-27T14:10:51.408Z,21.60
2019-04-27T14:13:21.444Z,26.62
2019-04-27T14:15:51.677Z,19.35
2019-04-27T14:18:21.778Z,23.60
2019-04-27T14:20:51.806Z,18.62
2019-04-27T14:23:23.382Z,18.15
2019-04-27T14:25:53.351Z,18.67
2019-04-27T14:28:23.244Z,17.60
2019-04-27T14:30:53.251Z,20.10
2019-04-27T14:33:23.273Z,16.77
2019-04-27T14:35:53.124Z,16.35
2019-04-27T14:38:24.018Z,19.10
2019-04-27T14:40:54.299Z,19.98
2019-04-27T14:43:24.110Z,18.40
2019-04-27T14:45:54.065Z,15.10
2019-04-27T14:48:23.996Z,17.17
2019-04-27T14:50:53.837Z,15.40
2019-04-27T14:53:23.803Z,15.03
2019-04-27T14:55:53.708Z,18.30
2019-04-27T14:58:23.623Z,13.93
2019-04-27T15:00:53.627Z,16.32
2019-04-27T15:03:23.550Z,13.48
2019-04-27T15:05:54.137Z,12.05
2019-04-27T15:08:25.617Z,12.10
2019-04-27T15:10:55.584Z,11.25
2019-04-27T15:13:25.459Z,10.90
2019-04-27T15:15:55.493Z,10.48
2019-04-27T15:18:29.595Z,11.08
2019-04-27T15:21:02.401Z,13.98
2019-04-27T15:23:30.887Z,14.73
2019-04-27T15:26:01.785Z,11.00
2019-04-27T15:28:33.361Z,8.73
2019-04-27T15:31:04.837Z,9.63
2019-04-27T15:33:54.659Z,9.58
2019-04-27T15:36:31.149Z,11.88
2019-04-27T15:39:22.495Z,9.68
2019-04-27T15:41:51.972Z,10.50
2019-04-27T15:44:21.902Z,13.75
2019-04-27T15:46:51.831Z,10.60
2019-04-27T15:49:21.964Z,10.32
2019-04-27T15:51:54.876Z,10.32
2019-04-27T15:54:29.076Z,11.33
2019-04-27T15:56:54.822Z,10.32
2019-04-27T15:59:37.199Z,10.75
2019-04-27T16:02:05.617Z,9.80
2019-04-27T16:04:34.622Z,9.83
2019-04-27T16:07:04.676Z,10.75
2019-04-27T16:09:34.609Z,11.22
2019-04-27T16:12:10.710Z,9.50
2019-04-27T16:14:36.481Z,9.58
2019-04-27T16:17:11.435Z,14.23
2019-04-27T16:19:40.669Z,12.35
2019-04-27T16:22:11.129Z,11.55
2019-04-27T16:24:42.300Z,11.38
2019-04-27T16:27:12.213Z,9.48
2019-04-27T16:29:42.248Z,10.93
2019-04-27T16:32:12.279Z,11.10
2019-04-27T16:34:42.291Z,10.48
2019-04-27T16:37:13.963Z,11.25
2019-04-27T16:39:47.207Z,9.35
2019-04-27T16:42:18.630Z,9.33
2019-04-27T16:44:52.936Z,11.00
2019-04-27T16:47:24.265Z,14.90
2019-04-27T16:49:51.725Z,15.18
2019-04-27T16:52:21.726Z,10.72
2019-04-27T16:54:57.031Z,27.15
2019-04-27T16:57:24.749Z,26.17
2019-04-27T16:59:57.514Z,23.42
2019-04-27T17:02:26.090Z,18.02
2019-04-27T17:04:56.035Z,18.35
2019-04-27T17:07:30.200Z,20.65
2019-04-27T17:09:59.494Z,17.90
2019-04-27T17:12:34.386Z,19.42
2019-04-27T17:15:05.750Z,13.20
2019-04-27T17:17:42.729Z,9.88
2019-04-27T17:20:12.993Z,16.32
2019-04-27T17:22:45.581Z,19.45
2019-04-27T17:25:15.431Z,21.75
2019-04-27T17:27:48.246Z,12.23
2019-04-27T17:30:18.920Z,18.48
2019-04-27T17:32:53.988Z,13.98
2019-04-27T17:35:23.987Z,11.65
2019-04-27T17:37:54.421Z,16.60
2019-04-27T17:40:24.483Z,12.78
2019-04-27T17:42:54.413Z,13.30
2019-04-27T17:45:24.509Z,10.40
2019-04-27T17:47:54.343Z,11.00
2019-04-27T17:50:26.273Z,13.93
2019-04-27T17:52:59.062Z,15.60
2019-04-27T17:55:29.285Z,11.08
2019-04-27T17:58:05.356Z,19.60
2019-04-27T18:00:32.905Z,20.45
2019-04-27T18:03:02.910Z,17.17
2019-04-27T18:05:32.910Z,26.85
2019-04-27T18:08:02.931Z,13.80
2019-04-27T18:10:33.033Z,12.73
2019-04-27T18:13:03.107Z,16.05
2019-04-27T18:15:33.137Z,17.37
2019-04-27T18:18:22.872Z,12.80
2019-04-27T18:20:52.109Z,15.48
2019-04-27T18:23:23.768Z,14.70
2019-04-27T18:25:55.268Z,10.68
2019-04-27T18:28:28.390Z,10.63
2019-04-27T18:30:59.905Z,10.30
2019-04-27T18:33:32.658Z,15.93
2019-04-27T18:36:05.425Z,17.75
2019-04-27T18:38:35.483Z,17.00
2019-04-27T18:41:07.995Z,28.27
2019-04-27T18:43:38.454Z,30.23
2019-04-27T18:46:09.066Z,28.75
2019-04-27T18:48:44.760Z,17.40
2019-04-27T18:51:30.279Z,18.60
2019-04-27T18:54:03.555Z,16.07
2019-04-27T18:56:33.483Z,14.03
2019-04-27T18:59:03.454Z,8.35
2019-04-27T19:01:33.462Z,6.70
2019-04-27T19:04:03.370Z,7.40
2019-04-27T19:06:33.425Z,6.75
2019-04-27T19:09:04.965Z,10.88
2019-04-27T19:11:34.973Z,9.83
2019-04-27T19:14:05.061Z,7.58
2019-04-27T19:16:35.075Z,9.50
2019-04-27T19:19:05.680Z,6.87
2019-04-27T19:21:35.688Z,5.00
2019-04-27T19:24:05.563Z,5.22
2019-04-27T19:26:49.210Z,4.90
2019-04-27T19:29:21.342Z,4.97
2019-04-27T19:31:59.072Z,4.45
2019-04-27T19:34:29.385Z,4.72
2019-04-27T19:36:59.719Z,4.62
2019-04-27T19:39:30.453Z,4.95
2019-04-27T19:42:03.743Z,4.03
2019-04-27T19:44:33.763Z,4.40
2019-04-27T19:47:05.857Z,4.90
2019-04-27T19:49:38.698Z,9.98
2019-04-27T19:52:08.820Z,11.85
2019-04-27T19:54:39.848Z,8.33
2019-04-27T19:57:10.296Z,7.00
2019-04-27T19:59:42.057Z,5.55
2019-04-27T20:02:15.541Z,5.17
2019-04-27T20:04:48.037Z,5.53
2019-04-27T20:07:18.515Z,5.28
2019-04-27T20:09:51.342Z,4.70
2019-04-27T20:12:21.659Z,4.70
2019-04-27T20:14:58.128Z,4.45
2019-04-27T20:17:31.195Z,4.58
2019-04-27T20:20:02.668Z,4.37
2019-04-27T20:22:33.401Z,4.10
2019-04-27T20:25:03.993Z,4.08
2019-04-27T20:27:46.026Z,4.28
2019-04-27T20:30:11.109Z,3.70
2019-04-27T20:32:41.863Z,4.35
2019-04-27T20:35:12.187Z,4.17
2019-04-27T20:37:42.717Z,3.83
2019-04-27T20:40:13.349Z,4.08
2019-04-27T20:42:46.537Z,3.80
2019-04-27T20:45:17.168Z,4.25
2019-04-27T20:47:47.508Z,4.20
2019-04-27T20:50:17.844Z,4.35
2019-04-27T20:52:50.881Z,3.98
2019-04-27T20:55:22.605Z,4.10
2019-04-27T20:58:01.652Z,4.40
2019-04-27T21:00:26.695Z,4.05
2019-04-27T21:03:04.461Z,5.05
2019-04-27T21:05:45.770Z,4.47
2019-04-27T21:08:17.735Z,4.42
2019-04-27T21:10:48.262Z,4.37
2019-04-27T21:13:18.673Z,4.40
2019-04-27T21:15:51.036Z,4.45
2019-04-27T21:18:21.894Z,5.03
2019-04-27T21:20:52.662Z,4.90
2019-04-27T21:23:25.819Z,5.50
2019-04-27T21:25:56.352Z,5.17
2019-04-27T21:28:26.877Z,4.58
2019-04-27T21:30:57.198Z,5.12
2019-04-27T21:33:27.727Z,4.95
2019-04-27T21:35:58.667Z,4.90
2019-04-27T21:38:28.992Z,5.12
2019-04-27T21:40:59.517Z,5.03
2019-04-27T21:43:29.846Z,4.97
2019-04-27T21:46:00.173Z,5.00
2019-04-27T21:48:31.278Z,5.00
2019-04-27T21:51:02.245Z,5.28
2019-04-27T21:53:36.666Z,5.50
2019-04-27T21:56:08.628Z,6.05
2019-04-27T21:58:38.954Z,6.22
2019-04-27T22:01:13.040Z,6.10
2019-04-27T22:03:43.490Z,5.78
2019-04-27T22:06:14.223Z,5.55
2019-04-27T22:08:44.741Z,6.08
2019-04-27T22:11:14.871Z,6.40
2019-04-27T22:13:45.200Z,6.22
2019-04-27T22:16:15.724Z,6.58
2019-04-27T22:18:46.460Z,6.67
2019-04-27T22:21:17.193Z,7.15
2019-04-27T22:24:11.231Z,6.85
2019-04-27T22:26:42.209Z,6.30
2019-04-27T22:29:12.942Z,6.42
2019-04-27T22:31:43.470Z,6.60
2019-04-27T22:34:13.590Z,6.47
2019-04-27T22:36:43.913Z,6.60
2019-04-27T22:39:33.889Z,6.47
2019-04-27T22:42:23.235Z,21.12
2019-04-27T22:44:54.822Z,30.35
2019-04-27T22:47:25.146Z,20.10
2019-04-27T22:49:55.674Z,20.95
2019-04-27T22:52:26.203Z,23.05
2019-04-27T22:54:56.526Z,24.20
2019-04-27T22:57:31.297Z,27.67
2019-04-27T23:00:03.707Z,24.32
2019-04-27T23:02:38.356Z,18.62
2019-04-27T23:05:10.824Z,7.40
2019-04-27T23:07:42.071Z,7.03
2019-04-27T23:10:12.748Z,6.50
2019-04-27T23:12:42.924Z,6.65
2019-04-27T23:15:15.091Z,6.72
2019-04-27T23:17:56.269Z,6.83
2019-04-27T23:20:26.897Z,6.62
2019-04-27T23:22:57.121Z,6.20
2019-04-27T23:25:27.444Z,6.00
2019-04-27T23:27:57.768Z,6.90
2019-04-27T23:30:31.213Z,6.80
2019-04-27T23:33:01.492Z,6.97
2019-04-27T23:35:32.947Z,6.58
2019-04-27T23:38:14.862Z,6.65
2019-04-27T23:40:35.122Z,7.20
2019-04-27T23:43:05.446Z,7.20
2019-04-27T23:45:35.974Z,9.38
2019-04-27T23:48:06.505Z,17.23
2019-04-27T23:50:38.465Z,23.92
2019-04-27T23:53:11.833Z,24.82
2019-04-27T23:55:42.594Z,27.60
2019-04-27T23:58:13.327Z,32.55
